createdAt,value
2022-12-14T00:01:56.523Z,34.10
2022-12-14T00:04:24.486Z,34.10
2022-12-14T00:06:52.679Z,34.10
2022-12-14T00:09:20.723Z,34.10
2022-12-14T00:11:50.174Z,34.10
2022-12-14T00:14:17.951Z,34.10
2022-12-14T00:16:45.830Z,34.10
2022-12-14T00:19:14.260Z,34.10
2022-12-14T00:21:41.994Z,34.10
2022-12-14T00:24:10.682Z,34.10
2022-12-14T00:26:38.572Z,34.10
2022-12-14T00:29:06.654Z,34.10
2022-12-14T00:31:34.748Z,34.10
2022-12-14T00:34:02.750Z,34.10
2022-12-14T00:36:31.855Z,34.10
2022-12-14T00:39:00.159Z,34.10
2022-12-14T00:41:28.061Z,34.10
2022-12-14T00:43:56.054Z,34.10
2022-12-14T00:46:24.101Z,34.10
2022-12-14T00:48:52.899Z,34.10
2022-12-14T00:51:20.770Z,34.10
2022-12-14T00:53:48.565Z,34.20
2022-12-14T00:56:16.425Z,34.20
2022-12-14T00:58:44.264Z,34.20
2022-12-14T01:01:15.867Z,34.10
2022-12-14T01:03:43.975Z,34.20
2022-12-14T01:06:17.444Z,34.20
2022-12-14T01:08:45.713Z,34.20
2022-12-14T01:11:14.591Z,34.20
2022-12-14T01:13:42.684Z,34.20
2022-12-14T01:16:15.289Z,34.20
2022-12-14T01:18:43.915Z,34.20
2022-12-14T01:21:23.151Z,34.20
2022-12-14T01:23:56.748Z,34.10
2022-12-14T01:26:26.393Z,34.10
2022-12-14T01:28:57.483Z,34.10
2022-12-14T01:31:37.276Z,34.10
2022-12-14T01:34:06.320Z,34.10
2022-12-14T01:36:36.053Z,34.10
2022-12-14T01:39:13.865Z,34.10
2022-12-14T01:41:49.666Z,34.10
2022-12-14T01:44:17.836Z,34.10
2022-12-14T01:46:50.583Z,34.10
2022-12-14T01:49:21.198Z,34.10
2022-12-14T01:52:02.733Z,34.10
2022-12-14T01:54:33.114Z,34.10
2022-12-14T01:57:01.341Z,34.10
2022-12-14T01:59:34.078Z,34.10
2022-12-14T02:02:06.877Z,34.10
2022-12-14T02:04:40.067Z,34.10
2022-12-14T02:07:08.503Z,34.10
2022-12-14T02:09:40.410Z,34.10
2022-12-14T02:12:20.028Z,34.10
2022-12-14T02:14:48.501Z,34.10
2022-12-14T02:17:17.988Z,34.10
2022-12-14T02:19:47.098Z,34.10
2022-12-14T02:22:36.577Z,34.10
2022-12-14T02:25:41.605Z,34.10
2022-12-14T02:28:50.232Z,34.10
2022-12-14T02:32:07.859Z,34.10
2022-12-14T02:34:38.813Z,34.00
2022-12-14T02:37:22.499Z,34.10
2022-12-14T02:40:01.182Z,34.10
2022-12-14T02:43:17.674Z,34.10
2022-12-14T02:45:56.458Z,34.10
2022-12-14T02:48:30.737Z,34.10
2022-12-14T02:51:11.094Z,34.10
2022-12-14T02:53:57.284Z,34.10
2022-12-14T02:56:33.907Z,34.10
2022-12-14T02:59:03.108Z,34.10
2022-12-14T03:01:32.751Z,34.10
2022-12-14T03:04:01.401Z,34.10
2022-12-14T03:06:30.183Z,34.10
2022-12-14T03:09:13.312Z,34.10
2022-12-14T03:11:52.813Z,34.20
2022-12-14T03:14:29.922Z,34.10
2022-12-14T03:17:04.282Z,34.20
2022-12-14T03:19:40.630Z,34.20
2022-12-14T03:22:16.390Z,34.20
2022-12-14T03:24:49.763Z,34.20
2022-12-14T03:27:25.403Z,34.20
2022-12-14T03:30:13.216Z,34.20
2022-12-14T03:32:55.777Z,34.20
2022-12-14T03:35:28.762Z,34.20
2022-12-14T03:38:06.701Z,34.20
2022-12-14T03:40:42.059Z,34.20
2022-12-14T03:43:38.080Z,34.30
2022-12-14T03:46:26.753Z,34.20
2022-12-14T03:49:14.164Z,34.20
2022-12-14T03:52:05.702Z,34.20
2022-12-14T03:54:52.113Z,34.20
2022-12-14T03:57:35.285Z,34.20
2022-12-14T04:00:10.685Z,34.30
2022-12-14T04:02:53.902Z,34.20
2022-12-14T04:05:32.897Z,34.20
2022-12-14T04:08:11.602Z,34.30
2022-12-14T04:11:05.853Z,34.20
2022-12-14T04:14:00.135Z,34.20
2022-12-14T04:16:54.374Z,34.20
2022-12-14T04:19:32.100Z,35.10
2022-12-14T04:22:06.690Z,35.40
2022-12-14T04:24:56.321Z,35.50
2022-12-14T04:28:05.378Z,35.80
2022-12-14T04:30:39.107Z,36.10
2022-12-14T04:33:29.148Z,36.20
2022-12-14T04:36:00.891Z,36.30
2022-12-14T04:38:37.977Z,36.40
2022-12-14T04:41:12.047Z,36.60
2022-12-14T04:43:41.797Z,36.60
2022-12-14T04:46:14.123Z,36.60
2022-12-14T04:48:59.943Z,36.60
2022-12-14T04:51:53.345Z,36.70
2022-12-14T04:54:21.950Z,36.80
2022-12-14T04:57:01.387Z,36.90
2022-12-14T04:59:29.637Z,37.10
2022-12-14T05:02:30.980Z,37.40
2022-12-14T05:05:40.163Z,37.30
2022-12-14T05:08:11.768Z,36.80
2022-12-14T05:11:30.457Z,36.20
2022-12-14T05:13:55.881Z,35.90
2022-12-14T05:16:25.181Z,35.70
2022-12-14T05:18:53.263Z,35.60
2022-12-14T05:21:39.832Z,35.80
2022-12-14T05:24:08.319Z,35.40
2022-12-14T05:26:36.277Z,35.70
2022-12-14T05:29:04.814Z,35.50
2022-12-14T05:31:32.817Z,35.60
2022-12-14T05:34:00.857Z,35.50
2022-12-14T05:36:29.182Z,35.40
2022-12-14T05:38:57.073Z,35.30
2022-12-14T05:41:25.233Z,35.70
2022-12-14T05:43:53.303Z,35.60
2022-12-14T05:46:21.238Z,35.60
2022-12-14T05:48:49.681Z,35.40
2022-12-14T05:51:18.498Z,35.60
2022-12-14T05:53:46.645Z,35.30
2022-12-14T05:56:14.889Z,35.50
2022-12-14T05:58:43.110Z,35.50
2022-12-14T06:01:17.177Z,35.50
2022-12-14T06:03:47.750Z,35.40
2022-12-14T06:06:15.769Z,35.50
2022-12-14T06:08:46.554Z,35.50
2022-12-14T06:11:17.087Z,35.50
2022-12-14T06:13:45.814Z,35.50
2022-12-14T06:16:22.861Z,35.20
2022-12-14T06:18:55.944Z,35.50
2022-12-14T06:21:27.276Z,35.60
2022-12-14T06:23:56.132Z,35.30
2022-12-14T06:26:25.942Z,35.70
2022-12-14T06:28:55.099Z,35.40
2022-12-14T06:31:25.895Z,27.30
2022-12-14T06:33:55.163Z,25.80
2022-12-14T06:36:26.857Z,30.90
2022-12-14T06:38:55.992Z,30.40
2022-12-14T06:41:24.971Z,30.00
2022-12-14T06:43:54.677Z,29.20
2022-12-14T06:46:24.184Z,29.10
2022-12-14T06:48:54.439Z,29.20
2022-12-14T06:51:24.432Z,29.70
2022-12-14T06:53:54.368Z,29.80
2022-12-14T06:56:24.105Z,30.20
2022-12-14T06:58:54.054Z,30.20
2022-12-14T07:01:24.230Z,30.40
2022-12-14T07:03:55.038Z,30.40
2022-12-14T07:06:24.925Z,30.70
2022-12-14T07:08:55.294Z,30.90
2022-12-14T07:11:24.238Z,30.80
2022-12-14T07:13:52.906Z,31.00
2022-12-14T07:16:26.306Z,31.30
2022-12-14T07:18:55.405Z,30.70
2022-12-14T07:21:24.540Z,31.10
2022-12-14T07:23:53.818Z,31.50
2022-12-14T07:26:25.338Z,31.60
2022-12-14T07:28:54.450Z,31.50
2022-12-14T07:31:25.297Z,31.60
2022-12-14T07:33:56.931Z,31.70
2022-12-14T07:36:27.147Z,31.60
2022-12-14T07:38:56.498Z,31.50
2022-12-14T07:41:31.761Z,31.90
2022-12-14T07:44:01.437Z,32.00
2022-12-14T07:46:33.998Z,32.00
2022-12-14T07:49:03.348Z,32.20
2022-12-14T07:51:34.438Z,31.90
2022-12-14T07:54:04.312Z,32.30
2022-12-14T07:56:37.561Z,32.50
2022-12-14T07:59:08.730Z,32.50
2022-12-14T08:01:38.256Z,32.60
2022-12-14T08:04:07.934Z,32.60
2022-12-14T08:06:37.016Z,32.80
2022-12-14T08:09:06.280Z,32.80
2022-12-14T08:11:35.166Z,33.00
2022-12-14T08:14:06.519Z,33.00
2022-12-14T08:16:34.934Z,33.00
2022-12-14T08:19:03.822Z,33.20
2022-12-14T08:21:31.982Z,33.20
2022-12-14T08:24:00.401Z,32.90
2022-12-14T08:26:35.292Z,33.50
2022-12-14T08:29:05.492Z,33.40
2022-12-14T08:31:34.720Z,33.30
2022-12-14T08:34:03.265Z,33.50
2022-12-14T08:36:34.556Z,33.40
2022-12-14T08:39:08.648Z,33.40
2022-12-14T08:41:36.734Z,33.50
2022-12-14T08:44:05.479Z,33.50
2022-12-14T08:46:35.104Z,33.50
2022-12-14T08:49:04.186Z,33.60
2022-12-14T08:51:32.523Z,33.60
2022-12-14T08:54:00.730Z,33.60
2022-12-14T08:56:29.448Z,33.60
2022-12-14T08:58:57.975Z,33.50
2022-12-14T09:01:33.590Z,33.30
2022-12-14T09:04:08.080Z,33.80
2022-12-14T09:06:38.649Z,33.80
2022-12-14T09:09:15.237Z,33.80
2022-12-14T09:11:45.546Z,33.90
2022-12-14T09:14:14.014Z,34.00
2022-12-14T09:16:42.420Z,34.10
2022-12-14T09:19:10.920Z,34.10
2022-12-14T09:21:40.222Z,34.20
2022-12-14T09:24:10.912Z,34.30
2022-12-14T09:26:39.020Z,34.40
2022-12-14T09:29:07.206Z,33.70
2022-12-14T09:31:35.550Z,33.90
2022-12-14T09:34:04.302Z,34.40
2022-12-14T09:36:32.957Z,34.30
2022-12-14T09:39:01.433Z,34.40
2022-12-14T09:41:35.507Z,34.50
2022-12-14T09:44:19.149Z,34.60
2022-12-14T09:46:53.281Z,34.10
2022-12-14T09:49:27.824Z,34.20
2022-12-14T09:52:02.035Z,34.50
2022-12-14T09:54:38.874Z,34.70
2022-12-14T09:57:22.299Z,35.30
2022-12-14T09:59:53.121Z,35.50
2022-12-14T10:02:40.362Z,35.50
2022-12-14T10:05:33.216Z,35.40
2022-12-14T10:08:10.915Z,35.50
2022-12-14T10:10:47.976Z,35.50
2022-12-14T10:13:36.720Z,35.60
2022-12-14T10:16:28.828Z,35.40
2022-12-14T10:19:04.452Z,35.60
2022-12-14T10:21:46.546Z,35.70
2022-12-14T10:24:36.582Z,35.10
2022-12-14T10:27:09.199Z,35.40
2022-12-14T10:29:43.585Z,34.70
2022-12-14T10:32:14.598Z,35.20
2022-12-14T10:34:46.109Z,35.20
2022-12-14T10:37:23.137Z,35.50
2022-12-14T10:40:24.760Z,35.30
2022-12-14T10:43:43.515Z,35.20
2022-12-14T10:46:18.984Z,34.80
2022-12-14T10:48:53.715Z,35.30
2022-12-14T10:51:42.793Z,35.60
2022-12-14T10:54:29.174Z,34.80
2022-12-14T10:56:57.692Z,35.10
2022-12-14T10:59:32.219Z,35.70
2022-12-14T11:02:35.694Z,35.80
2022-12-14T11:05:14.971Z,36.00
2022-12-14T11:07:46.021Z,37.20
2022-12-14T11:10:21.917Z,37.70
2022-12-14T11:13:12.931Z,37.60
2022-12-14T11:15:45.632Z,38.10
2022-12-14T11:18:16.802Z,38.60
2022-12-14T11:20:50.962Z,38.80
2022-12-14T11:23:29.921Z,38.70
2022-12-14T11:26:04.034Z,39.10
2022-12-14T11:28:38.661Z,39.30
2022-12-14T11:31:13.549Z,39.10
2022-12-14T11:33:50.216Z,39.30
2022-12-14T11:36:33.584Z,36.90
2022-12-14T11:39:13.665Z,37.60
2022-12-14T11:41:43.506Z,38.10
2022-12-14T11:44:26.438Z,38.20
2022-12-14T11:47:21.932Z,38.50
2022-12-14T11:49:54.854Z,38.70
2022-12-14T11:52:40.734Z,39.00
2022-12-14T11:55:26.173Z,39.10
2022-12-14T11:57:59.937Z,39.40
2022-12-14T12:00:46.821Z,39.10
2022-12-14T12:03:29.190Z,39.30
2022-12-14T12:06:06.229Z,39.20
2022-12-14T12:08:38.414Z,39.60
2022-12-14T12:11:25.279Z,39.30
2022-12-14T12:14:03.687Z,39.40
2022-12-14T12:16:33.414Z,39.80
2022-12-14T12:19:16.453Z,39.80
2022-12-14T12:21:45.805Z,39.70
2022-12-14T12:24:22.858Z,40.00
2022-12-14T12:27:01.491Z,39.70
2022-12-14T12:29:35.837Z,40.10
2022-12-14T12:32:17.538Z,40.10
2022-12-14T12:35:11.962Z,40.50
2022-12-14T12:38:04.428Z,40.00
2022-12-14T12:40:40.809Z,39.70
2022-12-14T12:43:26.435Z,39.90
2022-12-14T12:46:06.549Z,40.20
2022-12-14T12:48:45.521Z,40.20
2022-12-14T12:51:23.516Z,39.60
2022-12-14T12:53:59.216Z,40.70
2022-12-14T12:56:38.130Z,40.70
2022-12-14T12:59:07.261Z,40.90
2022-12-14T13:01:42.837Z,41.40
2022-12-14T13:04:27.984Z,41.80
2022-12-14T13:07:34.565Z,41.70
2022-12-14T13:10:14.327Z,41.80
2022-12-14T13:12:54.493Z,42.60
2022-12-14T13:15:28.642Z,42.60
2022-12-14T13:18:12.265Z,42.80
2022-12-14T13:20:40.829Z,43.00
2022-12-14T13:23:43.152Z,42.50
2022-12-14T13:26:55.788Z,42.90
2022-12-14T13:29:29.833Z,43.00
2022-12-14T13:32:14.557Z,42.20
2022-12-14T13:34:43.252Z,41.40
2022-12-14T13:37:42.858Z,42.10
2022-12-14T13:40:17.102Z,42.70
2022-12-14T13:43:17.801Z,42.60
2022-12-14T13:45:49.874Z,42.50
2022-12-14T13:48:27.676Z,42.50
2022-12-14T13:51:24.929Z,42.70
2022-12-14T13:53:57.309Z,43.00
2022-12-14T13:56:33.559Z,42.80
2022-12-14T13:59:18.172Z,42.80
2022-12-14T14:01:49.212Z,42.90
2022-12-14T14:04:23.565Z,42.70
2022-12-14T14:06:53.981Z,42.70
2022-12-14T14:09:34.922Z,42.80
2022-12-14T14:12:24.313Z,42.50
2022-12-14T14:15:11.532Z,42.50
2022-12-14T14:17:43.111Z,42.70
2022-12-14T14:20:53.912Z,42.80
2022-12-14T14:23:30.582Z,42.90
2022-12-14T14:26:19.286Z,42.90
2022-12-14T14:28:52.797Z,42.80
2022-12-14T14:31:22.701Z,43.00
2022-12-14T14:33:55.962Z,42.90
2022-12-14T14:36:33.891Z,43.00
2022-12-14T14:39:38.402Z,43.10
2022-12-14T14:41:58.081Z,43.10
2022-12-14T14:44:49.451Z,42.90
2022-12-14T14:47:31.874Z,43.10
2022-12-14T14:50:16.743Z,43.10
2022-12-14T14:52:59.571Z,43.10
2022-12-14T14:55:52.611Z,43.10
2022-12-14T14:58:33.419Z,43.20
2022-12-14T15:01:20.509Z,43.10
2022-12-14T15:04:06.222Z,43.20
2022-12-14T15:06:47.356Z,43.20
2022-12-14T15:09:26.897Z,43.20
2022-12-14T15:12:07.690Z,43.20
2022-12-14T15:14:48.794Z,43.40
2022-12-14T15:17:19.949Z,43.50
2022-12-14T15:19:59.459Z,43.50
2022-12-14T15:22:31.460Z,43.60
2022-12-14T15:25:01.209Z,43.50
2022-12-14T15:27:37.218Z,43.70
2022-12-14T15:30:11.287Z,43.50
2022-12-14T15:32:49.816Z,43.60
2022-12-14T15:35:23.014Z,43.70
2022-12-14T15:38:17.039Z,43.60
2022-12-14T15:40:55.456Z,43.90
2022-12-14T15:43:24.802Z,43.80
2022-12-14T15:45:56.132Z,43.70
2022-12-14T15:48:31.221Z,43.80
2022-12-14T15:51:03.534Z,43.90
2022-12-14T15:53:41.108Z,43.90
2022-12-14T15:56:30.187Z,43.90
2022-12-14T15:59:24.454Z,43.90
2022-12-14T16:02:16.191Z,44.00
2022-12-14T16:04:46.105Z,44.10
2022-12-14T16:07:33.647Z,44.10
2022-12-14T16:10:04.233Z,44.10
2022-12-14T16:12:47.603Z,44.10
2022-12-14T16:15:25.430Z,43.80
2022-12-14T16:18:01.510Z,43.50
2022-12-14T16:20:34.028Z,43.40
2022-12-14T16:23:07.023Z,43.30
2022-12-14T16:25:36.891Z,43.20
2022-12-14T16:28:33.151Z,39.70
2022-12-14T16:31:06.788Z,39.60
2022-12-14T16:33:36.790Z,37.60
2022-12-14T16:36:08.342Z,38.30
2022-12-14T16:39:01.613Z,39.60
2022-12-14T16:41:42.618Z,40.00
2022-12-14T16:44:22.140Z,40.10
2022-12-14T16:47:04.938Z,40.20
2022-12-14T16:49:41.770Z,40.40
2022-12-14T16:52:36.957Z,40.40
2022-12-14T16:55:19.219Z,40.40
2022-12-14T16:57:54.522Z,40.30
2022-12-14T17:00:22.795Z,40.40
2022-12-14T17:03:30.959Z,40.20
2022-12-14T17:06:01.875Z,40.30
2022-12-14T17:08:31.280Z,40.30
2022-12-14T17:11:00.046Z,40.20
2022-12-14T17:13:28.791Z,40.30
2022-12-14T17:16:03.933Z,40.30
2022-12-14T17:18:35.529Z,40.20
2022-12-14T17:21:06.001Z,40.20
2022-12-14T17:23:37.279Z,40.10
2022-12-14T17:26:05.550Z,40.20
2022-12-14T17:28:34.760Z,40.10
2022-12-14T17:31:03.703Z,40.20
2022-12-14T17:33:32.453Z,40.20
2022-12-14T17:36:00.823Z,40.10
2022-12-14T17:38:28.793Z,40.10
2022-12-14T17:40:57.102Z,40.10
2022-12-14T17:43:28.224Z,40.10
2022-12-14T17:46:01.483Z,40.10
2022-12-14T17:48:29.797Z,40.00
2022-12-14T17:50:57.982Z,40.10
2022-12-14T17:53:30.682Z,40.10
2022-12-14T17:55:59.204Z,39.90
2022-12-14T17:58:27.165Z,40.00
2022-12-14T18:01:01.477Z,40.00
2022-12-14T18:03:33.032Z,39.90
2022-12-14T18:06:02.460Z,39.90
2022-12-14T18:08:30.501Z,39.90
2022-12-14T18:11:02.193Z,39.90
2022-12-14T18:13:33.534Z,39.90
2022-12-14T18:16:01.953Z,39.90
2022-12-14T18:18:30.052Z,39.90
2022-12-14T18:21:01.085Z,39.80
2022-12-14T18:23:31.072Z,39.80
2022-12-14T18:26:02.778Z,39.80
2022-12-14T18:28:31.001Z,39.80
2022-12-14T18:31:07.694Z,39.80
2022-12-14T18:33:35.981Z,39.80
2022-12-14T18:36:04.247Z,39.80
2022-12-14T18:38:32.221Z,39.80
2022-12-14T18:41:02.899Z,39.80
2022-12-14T18:43:33.238Z,39.80
2022-12-14T18:46:02.284Z,39.80
2022-12-14T18:48:30.723Z,39.80
2022-12-14T18:50:58.802Z,39.70
2022-12-14T18:53:27.586Z,39.80
2022-12-14T18:55:56.384Z,39.70
2022-12-14T18:58:26.972Z,39.70
2022-12-14T19:00:57.708Z,39.70
2022-12-14T19:03:27.400Z,39.70
2022-12-14T19:06:43.129Z,39.70
2022-12-14T19:08:59.618Z,39.70
2022-12-14T19:11:39.012Z,39.60
2022-12-14T19:14:07.200Z,39.70
2022-12-14T19:16:35.215Z,39.60
2022-12-14T19:19:03.775Z,39.60
2022-12-14T19:21:31.931Z,39.60
2022-12-14T19:24:01.723Z,39.60
2022-12-14T19:26:30.834Z,39.60
2022-12-14T19:28:58.914Z,39.60
2022-12-14T19:31:27.415Z,39.50
2022-12-14T19:33:56.459Z,39.50
2022-12-14T19:36:24.842Z,39.50
2022-12-14T19:38:52.936Z,39.50
2022-12-14T19:41:21.691Z,39.50
2022-12-14T19:43:50.299Z,39.50
2022-12-14T19:46:18.688Z,39.50
2022-12-14T19:48:46.937Z,39.50
2022-12-14T19:51:15.515Z,39.50
2022-12-14T19:53:44.732Z,39.40
2022-12-14T19:56:17.146Z,39.40
2022-12-14T19:58:47.777Z,39.40
2022-12-14T20:01:18.880Z,39.40
2022-12-14T20:03:49.250Z,39.40
2022-12-14T20:06:17.515Z,39.40
2022-12-14T20:08:49.175Z,39.40
2022-12-14T20:11:17.455Z,39.40
2022-12-14T20:13:45.783Z,39.40
2022-12-14T20:16:18.159Z,39.40
2022-12-14T20:18:48.535Z,39.40
2022-12-14T20:21:21.850Z,39.40
2022-12-14T20:23:53.501Z,39.30
2022-12-14T20:26:22.227Z,39.30
2022-12-14T20:28:52.220Z,39.30
2022-12-14T20:31:22.522Z,39.30
2022-12-14T20:33:52.614Z,39.30
2022-12-14T20:36:22.449Z,39.30
2022-12-14T20:38:55.005Z,39.30
2022-12-14T20:41:23.157Z,39.20
2022-12-14T20:43:51.693Z,39.20
2022-12-14T20:46:27.585Z,39.20
2022-12-14T20:48:56.699Z,39.10
2022-12-14T20:51:24.913Z,39.20
2022-12-14T20:53:53.063Z,39.20
2022-12-14T20:56:21.664Z,39.10
2022-12-14T20:58:49.771Z,39.10
2022-12-14T21:01:19.624Z,39.10
2022-12-14T21:03:49.331Z,39.10
2022-12-14T21:06:20.122Z,39.10
2022-12-14T21:09:07.640Z,39.10
2022-12-14T21:11:55.180Z,39.10
2022-12-14T21:14:25.800Z,39.10
2022-12-14T21:16:54.048Z,39.10
2022-12-14T21:19:23.215Z,39.10
2022-12-14T21:21:53.871Z,39.10
2022-12-14T21:25:02.545Z,39.10
2022-12-14T21:27:18.713Z,39.10
2022-12-14T21:29:47.150Z,39.10
2022-12-14T21:32:16.665Z,39.10
2022-12-14T21:34:45.534Z,39.10
2022-12-14T21:37:13.838Z,39.10
2022-12-14T21:39:42.681Z,39.00
2022-12-14T21:42:15.691Z,39.10
2022-12-14T21:44:45.817Z,39.00
2022-12-14T21:47:17.445Z,39.10
2022-12-14T21:49:46.131Z,39.00
2022-12-14T21:52:16.770Z,39.10
2022-12-14T21:54:45.076Z,39.00
2022-12-14T21:57:37.025Z,39.00
2022-12-14T22:00:07.141Z,39.00
2022-12-14T22:02:42.073Z,39.00
2022-12-14T22:05:10.914Z,39.00
2022-12-14T22:07:38.913Z,39.00
2022-12-14T22:10:07.332Z,39.00
2022-12-14T22:12:35.292Z,39.00
2022-12-14T22:15:03.467Z,39.00
2022-12-14T22:17:31.689Z,39.00
2022-12-14T22:19:59.812Z,39.00
2022-12-14T22:22:27.819Z,39.00
2022-12-14T22:24:55.740Z,38.90
2022-12-14T22:27:23.669Z,39.00
2022-12-14T22:29:51.716Z,38.90
2022-12-14T22:32:19.658Z,38.90
2022-12-14T22:34:47.802Z,38.90
2022-12-14T22:37:16.916Z,39.00
2022-12-14T22:39:48.258Z,38.90
2022-12-14T22:42:16.644Z,38.90
2022-12-14T22:44:45.209Z,38.90
2022-12-14T22:47:13.189Z,38.90
2022-12-14T22:49:41.116Z,38.90
2022-12-14T22:52:09.534Z,38.90
2022-12-14T22:54:39.308Z,38.90
2022-12-14T22:57:16.620Z,38.90
2022-12-14T22:59:51.604Z,38.90
2022-12-14T23:02:19.602Z,38.90
2022-12-14T23:04:50.084Z,38.90
2022-12-14T23:07:18.166Z,38.80
2022-12-14T23:10:04.523Z,38.80
2022-12-14T23:12:51.307Z,38.80
2022-12-14T23:15:37.611Z,38.80
2022-12-14T23:18:25.486Z,38.80
2022-12-14T23:21:12.729Z,38.80
2022-12-14T23:24:01.015Z,38.80
2022-12-14T23:26:47.578Z,38.80
2022-12-14T23:29:34.247Z,38.80
2022-12-14T23:32:20.574Z,38.80
2022-12-14T23:35:06.972Z,38.80
2022-12-14T23:37:53.498Z,38.80
2022-12-14T23:40:40.158Z,38.80
2022-12-14T23:43:28.995Z,38.80
2022-12-14T23:46:18.036Z,38.80
2022-12-14T23:49:04.550Z,38.80
2022-12-14T23:51:50.908Z,38.80
2022-12-14T23:54:37.450Z,38.70
2022-12-14T23:57:26.057Z,38.80
